sensor_id;sensor_type;location;lat;lon;timestamp;P1;durP1;ratioP1;P2;durP2;ratioP2
2762;SDS011;1389;51.490;7.338;2023-08-17T00:00:37;1999.90;;;999.90;;
2762;SDS011;1389;51.490;7.338;2023-08-17T00:03:08;1999.90;;;999.90;;
2762;SDS011;1389;51.490;7.338;2023-08-17T00:05:35;1999.90;;;999.90;;
2762;SDS011;1389;51.490;7.338;2023-08-17T00:08:30;1217.75;;;933.55;;
2762;SDS011;1389;51.490;7.338;2023-08-17T00:10:59;1999.90;;;999.90;;
2762;SDS011;1389;51.490;7.338;2023-08-17T00:13:28;1999.90;;;999.90;;
2762;SDS011;1389;51.490;7.338;2023-08-17T00:15:55;1999.90;;;999.90;;
2762;SDS011;1389;51.490;7.338;2023-08-17T00:18:24;1450.83;;;999.90;;
2762;SDS011;1389;51.490;7.338;2023-08-17T00:20:51;1999.90;;;999.90;;
2762;SDS011;1389;51.490;7.338;2023-08-17T00:23:18;1999.90;;;999.90;;
2762;SDS011;1389;51.490;7.338;2023-08-17T00:25:46;1999.90;;;999.90;;
2762;SDS011;1389;51.490;7.338;2023-08-17T00:28:13;1999.90;;;999.90;;
2762;SDS011;1389;51.490;7.338;2023-08-17T00:30:39;1999.90;;;999.90;;
2762;SDS011;1389;51.490;7.338;2023-08-17T00:33:06;1999.90;;;999.90;;
2762;SDS011;1389;51.490;7.338;2023-08-17T00:35:32;1999.90;;;999.90;;
2762;SDS011;1389;51.490;7.338;2023-08-17T00:37:59;1999.90;;;999.90;;
2762;SDS011;1389;51.490;7.338;2023-08-17T00:40:26;1999.90;;;999.90;;
2762;SDS011;1389;51.490;7.338;2023-08-17T00:42:52;1999.90;;;999.90;;
2762;SDS011;1389;51.490;7.338;2023-08-17T00:45:21;1999.90;;;999.90;;
2762;SDS011;1389;51.490;7.338;2023-08-17T00:47:48;1999.90;;;999.90;;
2762;SDS011;1389;51.490;7.338;2023-08-17T00:50:16;1999.90;;;999.90;;
2762;SDS011;1389;51.490;7.338;2023-08-17T00:53:03;1999.90;;;999.90;;
2762;SDS011;1389;51.490;7.338;2023-08-17T00:55:49;1999.90;;;999.90;;
2762;SDS011;1389;51.490;7.338;2023-08-17T00:58:49;1999.90;;;999.90;;
2762;SDS011;1389;51.490;7.338;2023-08-17T01:01:31;1999.90;;;999.90;;
2762;SDS011;1389;51.490;7.338;2023-08-17T01:04:23;1999.90;;;999.90;;
2762;SDS011;1389;51.490;7.338;2023-08-17T01:06:50;1999.90;;;999.90;;
2762;SDS011;1389;51.490;7.338;2023-08-17T01:09:26;1999.90;;;999.90;;
2762;SDS011;1389;51.490;7.338;2023-08-17T01:14:50;1999.90;;;999.90;;
2762;SDS011;1389;51.490;7.338;2023-08-17T01:17:22;1999.90;;;999.90;;
2762;SDS011;1389;51.490;7.338;2023-08-17T01:20:02;1999.90;;;999.90;;
2762;SDS011;1389;51.490;7.338;2023-08-17T01:22:41;1999.90;;;999.90;;
2762;SDS011;1389;51.490;7.338;2023-08-17T01:25:10;1999.90;;;999.90;;
2762;SDS011;1389;51.490;7.338;2023-08-17T01:27:39;1999.90;;;999.90;;
2762;SDS011;1389;51.490;7.338;2023-08-17T01:30:12;1999.90;;;999.90;;
2762;SDS011;1389;51.490;7.338;2023-08-17T01:33:06;1999.90;;;999.90;;
2762;SDS011;1389;51.490;7.338;2023-08-17T01:35:44;1999.90;;;999.90;;
2762;SDS011;1389;51.490;7.338;2023-08-17T01:38:30;1999.90;;;999.90;;
2762;SDS011;1389;51.490;7.338;2023-08-17T01:41:13;1999.90;;;999.90;;
2762;SDS011;1389;51.490;7.338;2023-08-17T01:44:01;1999.90;;;999.90;;
2762;SDS011;1389;51.490;7.338;2023-08-17T01:46:36;1999.90;;;999.90;;
2762;SDS011;1389;51.490;7.338;2023-08-17T01:49:04;1999.90;;;999.90;;
2762;SDS011;1389;51.490;7.338;2023-08-17T01:51:35;1999.90;;;999.90;;
2762;SDS011;1389;51.490;7.338;2023-08-17T01:54:27;1999.90;;;999.90;;
2762;SDS011;1389;51.490;7.338;2023-08-17T01:57:39;1999.90;;;999.90;;
2762;SDS011;1389;51.490;7.338;2023-08-17T02:03:40;1999.90;;;999.90;;
2762;SDS011;1389;51.490;7.338;2023-08-17T02:06:23;1999.90;;;999.90;;
2762;SDS011;1389;51.490;7.338;2023-08-17T02:08:52;1999.90;;;999.90;;
2762;SDS011;1389;51.490;7.338;2023-08-17T02:11:20;1999.90;;;999.90;;
2762;SDS011;1389;51.490;7.338;2023-08-17T02:13:48;1999.90;;;999.90;;
2762;SDS011;1389;51.490;7.338;2023-08-17T02:16:21;1999.90;;;999.90;;
2762;SDS011;1389;51.490;7.338;2023-08-17T02:19:29;1999.90;;;999.90;;
2762;SDS011;1389;51.490;7.338;2023-08-17T02:22:09;1999.90;;;999.90;;
2762;SDS011;1389;51.490;7.338;2023-08-17T02:24:36;1999.90;;;999.90;;
2762;SDS011;1389;51.490;7.338;2023-08-17T02:27:13;1999.90;;;999.90;;
2762;SDS011;1389;51.490;7.338;2023-08-17T02:29:47;1999.90;;;999.90;;
2762;SDS011;1389;51.490;7.338;2023-08-17T02:32:35;1999.90;;;999.90;;
2762;SDS011;1389;51.490;7.338;2023-08-17T02:35:05;1999.90;;;999.90;;
2762;SDS011;1389;51.490;7.338;2023-08-17T02:37:33;1999.90;;;999.90;;
2762;SDS011;1389;51.490;7.338;2023-08-17T02:40:05;1999.90;;;999.90;;
2762;SDS011;1389;51.490;7.338;2023-08-17T02:42:35;1999.90;;;999.90;;
2762;SDS011;1389;51.490;7.338;2023-08-17T02:45:03;1999.90;;;999.90;;
2762;SDS011;1389;51.490;7.338;2023-08-17T02:47:31;1999.90;;;999.90;;
2762;SDS011;1389;51.490;7.338;2023-08-17T02:50:05;1999.90;;;999.90;;
2762;SDS011;1389;51.490;7.338;2023-08-17T02:52:34;1999.90;;;999.90;;
2762;SDS011;1389;51.490;7.338;2023-08-17T02:55:06;1999.90;;;999.90;;
2762;SDS011;1389;51.490;7.338;2023-08-17T02:57:35;1999.90;;;999.90;;
2762;SDS011;1389;51.490;7.338;2023-08-17T03:00:04;1999.90;;;999.90;;
2762;SDS011;1389;51.490;7.338;2023-08-17T03:02:32;1999.90;;;999.90;;
2762;SDS011;1389;51.490;7.338;2023-08-17T03:05:00;1999.90;;;999.90;;
2762;SDS011;1389;51.490;7.338;2023-08-17T03:07:33;1999.90;;;999.90;;
2762;SDS011;1389;51.490;7.338;2023-08-17T03:10:02;1999.90;;;999.90;;
2762;SDS011;1389;51.490;7.338;2023-08-17T03:12:37;1999.90;;;999.90;;
2762;SDS011;1389;51.490;7.338;2023-08-17T03:15:06;1999.90;;;999.90;;
2762;SDS011;1389;51.490;7.338;2023-08-17T03:17:36;1999.90;;;999.90;;
2762;SDS011;1389;51.490;7.338;2023-08-17T03:20:03;1999.90;;;999.90;;
2762;SDS011;1389;51.490;7.338;2023-08-17T03:22:38;1999.90;;;999.90;;
2762;SDS011;1389;51.490;7.338;2023-08-17T03:25:16;1999.90;;;999.90;;
2762;SDS011;1389;51.490;7.338;2023-08-17T03:27:45;1999.90;;;999.90;;
2762;SDS011;1389;51.490;7.338;2023-08-17T03:30:17;1999.90;;;999.90;;
2762;SDS011;1389;51.490;7.338;2023-08-17T03:32:44;1999.90;;;999.90;;
2762;SDS011;1389;51.490;7.338;2023-08-17T03:35:18;1999.90;;;999.90;;
2762;SDS011;1389;51.490;7.338;2023-08-17T03:37:46;1999.90;;;999.90;;
2762;SDS011;1389;51.490;7.338;2023-08-17T03:40:19;1999.90;;;999.90;;
2762;SDS011;1389;51.490;7.338;2023-08-17T03:43:16;1999.90;;;999.90;;
2762;SDS011;1389;51.490;7.338;2023-08-17T03:45:49;1999.90;;;999.90;;
2762;SDS011;1389;51.490;7.338;2023-08-17T03:48:17;1999.90;;;999.90;;
2762;SDS011;1389;51.490;7.338;2023-08-17T03:50:52;1999.90;;;999.90;;
2762;SDS011;1389;51.490;7.338;2023-08-17T03:53:23;1999.90;;;999.90;;
2762;SDS011;1389;51.490;7.338;2023-08-17T03:55:57;1999.90;;;999.90;;
2762;SDS011;1389;51.490;7.338;2023-08-17T03:58:25;1999.90;;;999.90;;
2762;SDS011;1389;51.490;7.338;2023-08-17T04:01:00;1999.90;;;999.90;;
2762;SDS011;1389;51.490;7.338;2023-08-17T04:03:32;235.93;;;46.70;;
2762;SDS011;1389;51.490;7.338;2023-08-17T04:06:21;683.85;;;292.77;;
2762;SDS011;1389;51.490;7.338;2023-08-17T04:09:07;1999.90;;;999.90;;
2762;SDS011;1389;51.490;7.338;2023-08-17T04:11:54;1999.90;;;999.90;;
2762;SDS011;1389;51.490;7.338;2023-08-17T04:14:27;1999.90;;;999.90;;
2762;SDS011;1389;51.490;7.338;2023-08-17T04:16:55;1999.90;;;999.90;;
2762;SDS011;1389;51.490;7.338;2023-08-17T04:19:34;1999.90;;;999.90;;
2762;SDS011;1389;51.490;7.338;2023-08-17T04:22:10;1999.90;;;999.90;;
2762;SDS011;1389;51.490;7.338;2023-08-17T04:24:37;1999.90;;;999.90;;
2762;SDS011;1389;51.490;7.338;2023-08-17T04:27:08;1999.90;;;999.90;;
2762;SDS011;1389;51.490;7.338;2023-08-17T04:29:40;1999.90;;;999.90;;
2762;SDS011;1389;51.490;7.338;2023-08-17T04:32:07;1999.90;;;999.90;;
2762;SDS011;1389;51.490;7.338;2023-08-17T04:34:34;1999.90;;;999.90;;
2762;SDS011;1389;51.490;7.338;2023-08-17T04:37:09;1999.90;;;999.90;;
2762;SDS011;1389;51.490;7.338;2023-08-17T04:39:49;1999.90;;;999.90;;
2762;SDS011;1389;51.490;7.338;2023-08-17T04:42:17;1999.90;;;999.90;;
2762;SDS011;1389;51.490;7.338;2023-08-17T04:44:56;1999.90;;;999.90;;
2762;SDS011;1389;51.490;7.338;2023-08-17T04:47:31;1999.90;;;999.90;;
2762;SDS011;1389;51.490;7.338;2023-08-17T04:49:58;1999.90;;;999.90;;
2762;SDS011;1389;51.490;7.338;2023-08-17T04:52:29;1999.90;;;999.90;;
2762;SDS011;1389;51.490;7.338;2023-08-17T04:55:03;1999.90;;;999.90;;
2762;SDS011;1389;51.490;7.338;2023-08-17T04:57:31;1999.90;;;999.90;;
2762;SDS011;1389;51.490;7.338;2023-08-17T05:00:13;1999.90;;;999.90;;
2762;SDS011;1389;51.490;7.338;2023-08-17T05:02:49;1999.90;;;999.90;;
2762;SDS011;1389;51.490;7.338;2023-08-17T05:05:25;986.17;;;939.17;;
2762;SDS011;1389;51.490;7.338;2023-08-17T05:07:58;867.13;;;321.77;;
2762;SDS011;1389;51.490;7.338;2023-08-17T05:10:27;882.53;;;339.58;;
2762;SDS011;1389;51.490;7.338;2023-08-17T05:13:12;886.00;;;345.77;;
2762;SDS011;1389;51.490;7.338;2023-08-17T05:15:52;886.40;;;343.15;;
2762;SDS011;1389;51.490;7.338;2023-08-17T05:18:19;1011.87;;;417.43;;
2762;SDS011;1389;51.490;7.338;2023-08-17T05:20:54;887.13;;;343.90;;
2762;SDS011;1389;51.490;7.338;2023-08-17T05:23:25;887.95;;;350.38;;
2762;SDS011;1389;51.490;7.338;2023-08-17T05:25:54;890.58;;;352.42;;
2762;SDS011;1389;51.490;7.338;2023-08-17T05:28:21;889.20;;;351.60;;
2762;SDS011;1389;51.490;7.338;2023-08-17T05:30:53;517.80;;;134.03;;
2762;SDS011;1389;51.490;7.338;2023-08-17T05:33:21;884.47;;;349.98;;
2762;SDS011;1389;51.490;7.338;2023-08-17T05:37:11;1004.37;;;415.13;;
2762;SDS011;1389;51.490;7.338;2023-08-17T05:40:12;888.33;;;350.10;;
2762;SDS011;1389;51.490;7.338;2023-08-17T06:57:35;501.75;;;99.38;;
2762;SDS011;1389;51.490;7.338;2023-08-17T07:00:03;1999.90;;;999.90;;
2762;SDS011;1389;51.490;7.338;2023-08-17T07:02:33;619.47;;;211.75;;
2762;SDS011;1389;51.490;7.338;2023-08-17T07:05:00;559.45;;;108.40;;
2762;SDS011;1389;51.490;7.338;2023-08-17T07:07:26;560.40;;;108.10;;
2762;SDS011;1389;51.490;7.338;2023-08-17T07:09:53;562.43;;;109.00;;
2762;SDS011;1389;51.490;7.338;2023-08-17T07:12:20;564.10;;;109.30;;
2762;SDS011;1389;51.490;7.338;2023-08-17T07:14:48;568.03;;;110.25;;
2762;SDS011;1389;51.490;7.338;2023-08-17T07:17:15;572.25;;;111.78;;
2762;SDS011;1389;51.490;7.338;2023-08-17T07:19:41;575.20;;;113.90;;
2762;SDS011;1389;51.490;7.338;2023-08-17T07:22:08;1051.53;;;409.97;;
2762;SDS011;1389;51.490;7.338;2023-08-17T07:24:35;933.03;;;336.67;;
2762;SDS011;1389;51.490;7.338;2023-08-17T07:27:01;931.55;;;336.15;;
2762;SDS011;1389;51.490;7.338;2023-08-17T07:29:27;932.88;;;336.08;;
2762;SDS011;1389;51.490;7.338;2023-08-17T07:31:54;933.40;;;336.60;;
2762;SDS011;1389;51.490;7.338;2023-08-17T07:34:23;933.63;;;336.92;;
2762;SDS011;1389;51.490;7.338;2023-08-17T07:36:51;932.83;;;336.73;;
2762;SDS011;1389;51.490;7.338;2023-08-17T07:39:18;932.03;;;336.70;;
2762;SDS011;1389;51.490;7.338;2023-08-17T07:41:44;573.10;;;114.50;;
2762;SDS011;1389;51.490;7.338;2023-08-17T07:44:11;572.00;;;114.50;;
2762;SDS011;1389;51.490;7.338;2023-08-17T07:46:38;569.50;;;113.30;;
2762;SDS011;1389;51.490;7.338;2023-08-17T07:49:09;567.38;;;112.30;;
2762;SDS011;1389;51.490;7.338;2023-08-17T07:51:35;566.17;;;112.20;;
2762;SDS011;1389;51.490;7.338;2023-08-17T07:54:03;564.78;;;111.85;;
2762;SDS011;1389;51.490;7.338;2023-08-17T07:56:29;564.20;;;112.40;;
2762;SDS011;1389;51.490;7.338;2023-08-17T07:58:56;563.90;;;111.50;;
2762;SDS011;1389;51.490;7.338;2023-08-17T08:01:23;565.28;;;112.45;;
2762;SDS011;1389;51.490;7.338;2023-08-17T08:03:50;564.28;;;112.07;;
2762;SDS011;1389;51.490;7.338;2023-08-17T08:06:16;564.80;;;111.80;;
2762;SDS011;1389;51.490;7.338;2023-08-17T08:08:46;565.60;;;112.20;;
2762;SDS011;1389;51.490;7.338;2023-08-17T08:11:12;565.35;;;112.10;;
2762;SDS011;1389;51.490;7.338;2023-08-17T08:13:39;566.40;;;111.40;;
2762;SDS011;1389;51.490;7.338;2023-08-17T08:16:05;567.17;;;112.07;;
2762;SDS011;1389;51.490;7.338;2023-08-17T08:18:32;566.55;;;111.50;;
2762;SDS011;1389;51.490;7.338;2023-08-17T08:21:00;568.10;;;112.60;;
2762;SDS011;1389;51.490;7.338;2023-08-17T08:23:27;567.40;;;111.40;;
2762;SDS011;1389;51.490;7.338;2023-08-17T08:25:54;568.72;;;112.57;;
2762;SDS011;1389;51.490;7.338;2023-08-17T08:28:21;569.30;;;112.95;;
2762;SDS011;1389;51.490;7.338;2023-08-17T08:30:47;569.03;;;111.90;;
2762;SDS011;1389;51.490;7.338;2023-08-17T08:33:14;570.10;;;113.38;;
2762;SDS011;1389;51.490;7.338;2023-08-17T08:35:42;569.72;;;112.70;;
2762;SDS011;1389;51.490;7.338;2023-08-17T08:38:15;569.33;;;112.20;;
2762;SDS011;1389;51.490;7.338;2023-08-17T08:40:41;569.70;;;113.10;;
2762;SDS011;1389;51.490;7.338;2023-08-17T08:43:09;570.10;;;113.90;;
2762;SDS011;1389;51.490;7.338;2023-08-17T08:45:39;571.40;;;115.10;;
2762;SDS011;1389;51.490;7.338;2023-08-17T08:48:08;567.17;;;112.78;;
2762;SDS011;1389;51.490;7.338;2023-08-17T08:50:35;562.20;;;109.90;;
2762;SDS011;1389;51.490;7.338;2023-08-17T08:53:02;562.10;;;110.10;;
2762;SDS011;1389;51.490;7.338;2023-08-17T08:55:35;561.30;;;110.40;;
2762;SDS011;1389;51.490;7.338;2023-08-17T08:58:04;560.70;;;109.32;;
2762;SDS011;1389;51.490;7.338;2023-08-17T09:00:31;561.50;;;110.30;;
2762;SDS011;1389;51.490;7.338;2023-08-17T09:03:01;560.90;;;109.70;;
2762;SDS011;1389;51.490;7.338;2023-08-17T09:05:31;561.20;;;110.00;;
2762;SDS011;1389;51.490;7.338;2023-08-17T09:08:03;560.92;;;110.30;;
2762;SDS011;1389;51.490;7.338;2023-08-17T09:10:30;561.30;;;111.40;;
2762;SDS011;1389;51.490;7.338;2023-08-17T09:13:14;560.00;;;110.20;;
2762;SDS011;1389;51.490;7.338;2023-08-17T09:15:42;560.20;;;110.50;;
2762;SDS011;1389;51.490;7.338;2023-08-17T09:18:09;560.45;;;110.75;;
2762;SDS011;1389;51.490;7.338;2023-08-17T09:20:57;560.20;;;110.60;;
2762;SDS011;1389;51.490;7.338;2023-08-17T09:23:26;559.78;;;110.22;;
2762;SDS011;1389;51.490;7.338;2023-08-17T09:26:21;562.00;;;110.32;;
2762;SDS011;1389;51.490;7.338;2023-08-17T09:29:20;563.55;;;111.00;;
2762;SDS011;1389;51.490;7.338;2023-08-17T09:35:51;567.80;;;112.40;;
2762;SDS011;1389;51.490;7.338;2023-08-17T09:38:27;568.67;;;112.70;;
2762;SDS011;1389;51.490;7.338;2023-08-17T09:41:20;570.80;;;113.10;;
2762;SDS011;1389;51.490;7.338;2023-08-17T09:43:51;571.22;;;114.35;;
2762;SDS011;1389;51.490;7.338;2023-08-17T09:46:18;570.60;;;113.63;;
2762;SDS011;1389;51.490;7.338;2023-08-17T09:48:46;571.13;;;113.30;;
2762;SDS011;1389;51.490;7.338;2023-08-17T09:51:14;569.95;;;112.88;;
2762;SDS011;1389;51.490;7.338;2023-08-17T09:53:43;569.00;;;113.70;;
2762;SDS011;1389;51.490;7.338;2023-08-17T09:56:17;566.45;;;112.60;;
2762;SDS011;1389;51.490;7.338;2023-08-17T09:58:43;565.30;;;112.40;;
2762;SDS011;1389;51.490;7.338;2023-08-17T10:01:11;565.72;;;113.95;;
2762;SDS011;1389;51.490;7.338;2023-08-17T10:03:39;564.80;;;112.70;;
2762;SDS011;1389;51.490;7.338;2023-08-17T10:06:17;563.78;;;111.90;;
2762;SDS011;1389;51.490;7.338;2023-08-17T10:08:47;564.57;;;110.70;;
2762;SDS011;1389;51.490;7.338;2023-08-17T10:11:29;565.70;;;112.50;;
2762;SDS011;1389;51.490;7.338;2023-08-17T10:14:13;566.63;;;112.10;;
2762;SDS011;1389;51.490;7.338;2023-08-17T10:17:21;567.37;;;112.13;;
2762;SDS011;1389;51.490;7.338;2023-08-17T10:20:12;567.10;;;112.05;;
2762;SDS011;1389;51.490;7.338;2023-08-17T10:23:48;568.40;;;113.50;;
2762;SDS011;1389;51.490;7.338;2023-08-17T10:26:56;568.40;;;114.50;;
2762;SDS011;1389;51.490;7.338;2023-08-17T10:30:26;569.00;;;113.95;;
2762;SDS011;1389;51.490;7.338;2023-08-17T10:33:34;927.50;;;336.13;;
2762;SDS011;1389;51.490;7.338;2023-08-17T10:36:56;925.97;;;334.65;;
2762;SDS011;1389;51.490;7.338;2023-08-17T10:40:45;926.08;;;334.75;;
2762;SDS011;1389;51.490;7.338;2023-08-17T10:51:20;921.00;;;327.70;;
2762;SDS011;1389;51.490;7.338;2023-08-17T10:54:38;921.90;;;329.63;;
2762;SDS011;1389;51.490;7.338;2023-08-17T11:00:23;925.83;;;332.55;;
2762;SDS011;1389;51.490;7.338;2023-08-17T11:03:47;924.67;;;332.17;;
2762;SDS011;1389;51.490;7.338;2023-08-17T11:11:16;1041.77;;;402.23;;
2762;SDS011;1389;51.490;7.338;2023-08-17T11:14:25;563.07;;;103.60;;
2762;SDS011;1389;51.490;7.338;2023-08-17T11:21:17;560.47;;;102.03;;
2762;SDS011;1389;51.490;7.338;2023-08-17T11:28:11;557.70;;;98.40;;
2762;SDS011;1389;51.490;7.338;2023-08-17T11:32:21;557.90;;;99.00;;
2762;SDS011;1389;51.490;7.338;2023-08-17T11:35:55;557.60;;;98.23;;
2762;SDS011;1389;51.490;7.338;2023-08-17T11:39:32;560.28;;;101.60;;
2762;SDS011;1389;51.490;7.338;2023-08-17T11:42:55;560.00;;;101.47;;
2762;SDS011;1389;51.490;7.338;2023-08-17T11:46:32;558.00;;;99.30;;
2762;SDS011;1389;51.490;7.338;2023-08-17T12:57:20;557.90;;;97.10;;
2762;SDS011;1389;51.490;7.338;2023-08-17T13:04:24;558.90;;;97.90;;
2762;SDS011;1389;51.490;7.338;2023-08-17T13:08:03;559.67;;;98.30;;
2762;SDS011;1389;51.490;7.338;2023-08-17T13:11:52;558.83;;;96.77;;
2762;SDS011;1389;51.490;7.338;2023-08-17T13:22:51;919.33;;;323.17;;
2762;SDS011;1389;51.490;7.338;2023-08-17T13:33:15;919.97;;;323.10;;
2762;SDS011;1389;51.490;7.338;2023-08-17T13:36:43;919.67;;;322.50;;
2762;SDS011;1389;51.490;7.338;2023-08-17T13:40:14;919.83;;;322.65;;
2762;SDS011;1389;51.490;7.338;2023-08-17T13:43:15;919.60;;;322.50;;
2762;SDS011;1389;51.490;7.338;2023-08-17T13:49:50;920.42;;;324.45;;
2762;SDS011;1389;51.490;7.338;2023-08-17T13:53:30;919.95;;;324.00;;
2762;SDS011;1389;51.490;7.338;2023-08-17T14:07:27;919.75;;;323.25;;
2762;SDS011;1389;51.490;7.338;2023-08-17T14:10:54;918.90;;;323.00;;
2762;SDS011;1389;51.490;7.338;2023-08-17T14:13:20;559.63;;;98.82;;
2762;SDS011;1389;51.490;7.338;2023-08-17T14:15:46;558.90;;;97.70;;
2762;SDS011;1389;51.490;7.338;2023-08-17T14:18:16;559.73;;;98.10;;
2762;SDS011;1389;51.490;7.338;2023-08-17T14:20:43;562.33;;;101.27;;
2762;SDS011;1389;51.490;7.338;2023-08-17T14:23:15;562.35;;;101.47;;
2762;SDS011;1389;51.490;7.338;2023-08-17T14:25:53;559.70;;;98.20;;
2762;SDS011;1389;51.490;7.338;2023-08-17T14:28:36;560.28;;;99.60;;
2762;SDS011;1389;51.490;7.338;2023-08-17T14:31:03;559.90;;;98.50;;
2762;SDS011;1389;51.490;7.338;2023-08-17T14:33:35;560.22;;;98.75;;
2762;SDS011;1389;51.490;7.338;2023-08-17T14:36:03;560.15;;;98.70;;
2762;SDS011;1389;51.490;7.338;2023-08-17T14:38:32;560.30;;;99.77;;
2762;SDS011;1389;51.490;7.338;2023-08-17T14:41:06;558.97;;;98.55;;
2762;SDS011;1389;51.490;7.338;2023-08-17T14:43:34;559.20;;;98.67;;
2762;SDS011;1389;51.490;7.338;2023-08-17T14:46:02;560.15;;;99.90;;
2762;SDS011;1389;51.490;7.338;2023-08-17T14:48:37;559.50;;;100.13;;
2762;SDS011;1389;51.490;7.338;2023-08-17T14:51:15;559.40;;;100.40;;
2762;SDS011;1389;51.490;7.338;2023-08-17T14:53:58;919.15;;;325.15;;
2762;SDS011;1389;51.490;7.338;2023-08-17T14:56:31;558.60;;;99.13;;
2762;SDS011;1389;51.490;7.338;2023-08-17T14:59:03;918.47;;;323.92;;
2762;SDS011;1389;51.490;7.338;2023-08-17T15:01:35;558.50;;;98.00;;
2762;SDS011;1389;51.490;7.338;2023-08-17T15:04:05;558.72;;;98.00;;
2762;SDS011;1389;51.490;7.338;2023-08-17T15:06:38;559.80;;;98.90;;
2762;SDS011;1389;51.490;7.338;2023-08-17T15:09:09;559.20;;;98.20;;
2762;SDS011;1389;51.490;7.338;2023-08-17T15:11:54;560.10;;;99.10;;
2762;SDS011;1389;51.490;7.338;2023-08-17T15:14:22;559.47;;;98.63;;
2762;SDS011;1389;51.490;7.338;2023-08-17T15:16:53;559.57;;;98.30;;
2762;SDS011;1389;51.490;7.338;2023-08-17T15:19:31;559.90;;;98.70;;
2762;SDS011;1389;51.490;7.338;2023-08-17T15:22:00;559.70;;;99.40;;
2762;SDS011;1389;51.490;7.338;2023-08-17T15:24:55;560.70;;;99.75;;
2762;SDS011;1389;51.490;7.338;2023-08-17T15:27:22;560.22;;;99.95;;
2762;SDS011;1389;51.490;7.338;2023-08-17T15:29:52;558.78;;;98.20;;
2762;SDS011;1389;51.490;7.338;2023-08-17T15:32:23;919.83;;;324.58;;
2762;SDS011;1389;51.490;7.338;2023-08-17T15:35:04;919.90;;;324.45;;
2762;SDS011;1389;51.490;7.338;2023-08-17T15:37:34;919.90;;;323.90;;
2762;SDS011;1389;51.490;7.338;2023-08-17T15:40:07;920.20;;;323.92;;
2762;SDS011;1389;51.490;7.338;2023-08-17T15:42:36;919.95;;;323.02;;
2762;SDS011;1389;51.490;7.338;2023-08-17T15:45:04;560.00;;;97.17;;
2762;SDS011;1389;51.490;7.338;2023-08-17T15:47:42;919.45;;;322.20;;
2762;SDS011;1389;51.490;7.338;2023-08-17T15:50:16;919.53;;;322.20;;
2762;SDS011;1389;51.490;7.338;2023-08-17T15:52:51;918.13;;;321.55;;
2762;SDS011;1389;51.490;7.338;2023-08-17T15:55:20;918.55;;;321.23;;
2762;SDS011;1389;51.490;7.338;2023-08-17T15:57:48;916.65;;;320.25;;
2762;SDS011;1389;51.490;7.338;2023-08-17T16:00:18;914.38;;;320.33;;
2762;SDS011;1389;51.490;7.338;2023-08-17T16:02:48;912.60;;;319.48;;
2762;SDS011;1389;51.490;7.338;2023-08-17T16:05:20;908.58;;;317.85;;
2762;SDS011;1389;51.490;7.338;2023-08-17T16:07:46;545.53;;;90.10;;
2762;SDS011;1389;51.490;7.338;2023-08-17T16:10:13;907.00;;;316.65;;
2762;SDS011;1389;51.490;7.338;2023-08-17T16:12:41;906.10;;;316.55;;
2762;SDS011;1389;51.490;7.338;2023-08-17T16:15:12;906.15;;;316.02;;
2762;SDS011;1389;51.490;7.338;2023-08-17T16:17:39;905.20;;;317.92;;
2762;SDS011;1389;51.490;7.338;2023-08-17T16:20:06;1026.80;;;393.20;;
2762;SDS011;1389;51.490;7.338;2023-08-17T16:22:38;904.60;;;315.90;;
2762;SDS011;1389;51.490;7.338;2023-08-17T16:25:09;542.93;;;91.87;;
2762;SDS011;1389;51.490;7.338;2023-08-17T16:27:42;543.83;;;89.00;;
2762;SDS011;1389;51.490;7.338;2023-08-17T16:30:14;908.30;;;316.88;;
2762;SDS011;1389;51.490;7.338;2023-08-17T16:32:52;910.90;;;318.38;;
2762;SDS011;1389;51.490;7.338;2023-08-17T16:35:20;912.42;;;318.33;;
2762;SDS011;1389;51.490;7.338;2023-08-17T16:37:51;913.45;;;319.25;;
2762;SDS011;1389;51.490;7.338;2023-08-17T16:40:30;915.60;;;320.20;;
2762;SDS011;1389;51.490;7.338;2023-08-17T16:43:03;916.58;;;320.48;;
2762;SDS011;1389;51.490;7.338;2023-08-17T16:45:32;555.30;;;94.20;;
2762;SDS011;1389;51.490;7.338;2023-08-17T16:48:29;1036.73;;;396.40;;
2762;SDS011;1389;51.490;7.338;2023-08-17T16:51:00;555.57;;;93.80;;
2762;SDS011;1389;51.490;7.338;2023-08-17T16:53:29;918.60;;;321.08;;
2762;SDS011;1389;51.490;7.338;2023-08-17T16:56:22;919.28;;;321.63;;
2762;SDS011;1389;51.490;7.338;2023-08-17T16:58:57;920.08;;;322.02;;
2762;SDS011;1389;51.490;7.338;2023-08-17T17:01:53;1040.50;;;397.70;;
2762;SDS011;1389;51.490;7.338;2023-08-17T17:04:23;920.83;;;322.52;;
2762;SDS011;1389;51.490;7.338;2023-08-17T17:06:52;920.13;;;322.42;;
2762;SDS011;1389;51.490;7.338;2023-08-17T17:09:45;920.63;;;322.42;;
2762;SDS011;1389;51.490;7.338;2023-08-17T17:12:17;922.50;;;325.08;;
2762;SDS011;1389;51.490;7.338;2023-08-17T17:14:49;1040.83;;;398.57;;
2762;SDS011;1389;51.490;7.338;2023-08-17T17:17:23;922.83;;;326.02;;
2762;SDS011;1389;51.490;7.338;2023-08-17T17:20:05;920.40;;;323.27;;
2762;SDS011;1389;51.490;7.338;2023-08-17T17:22:33;920.95;;;323.48;;
2762;SDS011;1389;51.490;7.338;2023-08-17T17:25:01;920.63;;;322.95;;
2762;SDS011;1389;51.490;7.338;2023-08-17T17:27:33;921.28;;;323.35;;
2762;SDS011;1389;51.490;7.338;2023-08-17T17:30:07;920.33;;;322.73;;
2762;SDS011;1389;51.490;7.338;2023-08-17T17:32:39;1041.90;;;401.23;;
2762;SDS011;1389;51.490;7.338;2023-08-17T17:35:17;920.20;;;323.10;;
2762;SDS011;1389;51.490;7.338;2023-08-17T17:37:48;919.90;;;323.52;;
2762;SDS011;1389;51.490;7.338;2023-08-17T17:40:18;920.90;;;325.45;;
2762;SDS011;1389;51.490;7.338;2023-08-17T17:42:46;559.22;;;98.82;;
2762;SDS011;1389;51.490;7.338;2023-08-17T17:45:34;558.90;;;98.30;;
2762;SDS011;1389;51.490;7.338;2023-08-17T17:48:02;558.57;;;97.73;;
2762;SDS011;1389;51.490;7.338;2023-08-17T17:50:30;558.00;;;96.63;;
2762;SDS011;1389;51.490;7.338;2023-08-17T17:53:02;558.20;;;98.10;;
2762;SDS011;1389;51.490;7.338;2023-08-17T17:55:30;556.30;;;96.25;;
2762;SDS011;1389;51.490;7.338;2023-08-17T17:58:05;556.90;;;97.00;;
2762;SDS011;1389;51.490;7.338;2023-08-17T18:00:59;558.40;;;97.00;;
2762;SDS011;1389;51.490;7.338;2023-08-17T18:03:31;557.70;;;97.75;;
2762;SDS011;1389;51.490;7.338;2023-08-17T18:05:58;557.60;;;97.60;;
2762;SDS011;1389;51.490;7.338;2023-08-17T18:08:26;557.80;;;97.70;;
2762;SDS011;1389;51.490;7.338;2023-08-17T18:10:53;557.10;;;96.80;;
2762;SDS011;1389;51.490;7.338;2023-08-17T18:13:20;557.05;;;97.53;;
2762;SDS011;1389;51.490;7.338;2023-08-17T18:15:55;556.80;;;97.53;;
2762;SDS011;1389;51.490;7.338;2023-08-17T18:18:21;556.10;;;97.60;;
2762;SDS011;1389;51.490;7.338;2023-08-17T18:21:00;555.20;;;97.50;;
2762;SDS011;1389;51.490;7.338;2023-08-17T18:23:28;554.83;;;96.80;;
2762;SDS011;1389;51.490;7.338;2023-08-17T18:25:56;555.10;;;97.28;;
2762;SDS011;1389;51.490;7.338;2023-08-17T18:28:22;1034.40;;;400.00;;
2762;SDS011;1389;51.490;7.338;2023-08-17T18:30:50;911.50;;;334.45;;
2762;SDS011;1389;51.490;7.338;2023-08-17T18:33:16;913.58;;;335.17;;
2762;SDS011;1389;51.490;7.338;2023-08-17T18:35:42;893.63;;;330.30;;
2762;SDS011;1389;51.490;7.338;2023-08-17T18:38:09;524.23;;;114.90;;
2762;SDS011;1389;51.490;7.338;2023-08-17T18:40:37;999.33;;;403.80;;
2762;SDS011;1389;51.490;7.338;2023-08-17T18:43:04;883.40;;;337.70;;
2762;SDS011;1389;51.490;7.338;2023-08-17T18:45:30;896.03;;;335.50;;